createdAt,value
2022-12-20T00:00:12.934Z,42.50
2022-12-20T00:03:01.729Z,43.20
2022-12-20T00:05:49.104Z,46.75
2022-12-20T00:08:46.619Z,51.67
2022-12-20T00:11:30.339Z,51.05
2022-12-20T00:14:25.496Z,50.15
2022-12-20T00:17:14.900Z,47.65
2022-12-20T00:19:46.584Z,51.60
2022-12-20T00:22:17.142Z,48.72
2022-12-20T00:24:46.077Z,48.40
2022-12-20T00:27:15.074Z,46.47
2022-12-20T00:29:43.738Z,51.88
2022-12-20T00:32:12.603Z,45.88
2022-12-20T00:34:41.317Z,51.75
2022-12-20T00:37:09.623Z,49.67
2022-12-20T00:39:40.778Z,48.58
2022-12-20T00:42:09.112Z,47.35
2022-12-20T00:44:37.838Z,50.05
2022-12-20T00:47:06.351Z,53.92
2022-12-20T00:49:35.115Z,45.60
2022-12-20T00:52:03.667Z,51.30
2022-12-20T00:54:32.419Z,47.88
2022-12-20T00:57:01.121Z,45.28
2022-12-20T00:59:30.881Z,53.63
2022-12-20T01:02:01.431Z,54.45
2022-12-20T01:04:30.172Z,50.88
2022-12-20T01:06:58.522Z,51.50
2022-12-20T01:09:27.140Z,51.80
2022-12-20T01:11:57.246Z,50.70
2022-12-20T01:14:25.910Z,57.65
2022-12-20T01:16:54.249Z,45.75
2022-12-20T01:19:22.926Z,51.90
2022-12-20T01:21:51.447Z,49.78
2022-12-20T01:24:20.573Z,49.80
2022-12-20T01:26:48.914Z,50.15
2022-12-20T01:29:18.308Z,49.67
2022-12-20T01:31:46.658Z,47.72
2022-12-20T01:34:15.771Z,48.63
2022-12-20T01:36:44.284Z,47.17
2022-12-20T01:39:16.667Z,45.58
2022-12-20T01:44:17.205Z,46.72
2022-12-20T01:46:47.639Z,48.53
2022-12-20T01:49:25.273Z,50.00
2022-12-20T01:51:58.888Z,51.53
2022-12-20T01:55:03.341Z,48.45
2022-12-20T01:57:45.227Z,44.72
2022-12-20T02:00:15.187Z,45.97
2022-12-20T02:02:46.924Z,50.20
2022-12-20T02:05:18.478Z,42.67
2022-12-20T02:07:50.443Z,37.95
2022-12-20T02:10:23.083Z,48.53
2022-12-20T02:12:59.439Z,51.42
2022-12-20T02:15:41.389Z,48.17
2022-12-20T02:18:28.460Z,46.45
2022-12-20T02:21:30.236Z,47.97
2022-12-20T02:24:24.535Z,43.63
2022-12-20T02:27:02.051Z,46.75
2022-12-20T02:29:37.627Z,46.65
2022-12-20T02:32:16.487Z,47.40
2022-12-20T02:34:46.213Z,45.28
2022-12-20T02:37:15.057Z,45.45
2022-12-20T02:39:46.677Z,46.83
2022-12-20T02:42:23.737Z,41.78
2022-12-20T02:45:17.232Z,46.15
2022-12-20T02:48:02.503Z,41.83
2022-12-20T02:50:43.699Z,46.90
2022-12-20T02:53:12.910Z,43.40
2022-12-20T02:55:54.642Z,42.58
2022-12-20T02:58:38.419Z,41.15
2022-12-20T03:01:11.273Z,36.22
2022-12-20T03:03:41.402Z,33.67
2022-12-20T03:06:09.752Z,39.67
2022-12-20T03:08:38.325Z,42.90
2022-12-20T03:11:06.589Z,41.80
2022-12-20T03:13:37.995Z,41.08
2022-12-20T03:16:11.018Z,41.00
2022-12-20T03:19:04.786Z,39.53
2022-12-20T03:21:33.042Z,42.85
2022-12-20T03:24:02.488Z,39.63
2022-12-20T03:26:31.098Z,41.10
2022-12-20T03:29:01.777Z,40.10
2022-12-20T03:31:30.147Z,39.67
2022-12-20T03:33:58.668Z,37.53
2022-12-20T03:36:27.359Z,46.00
2022-12-20T03:39:00.781Z,43.22
2022-12-20T03:41:32.472Z,37.22
2022-12-20T03:44:01.705Z,38.42
2022-12-20T03:46:29.976Z,38.70
2022-12-20T03:48:59.367Z,38.50
2022-12-20T03:51:27.903Z,37.03
2022-12-20T03:53:56.431Z,38.33
2022-12-20T03:56:32.985Z,39.90
2022-12-20T03:59:01.662Z,36.20
2022-12-20T04:01:30.625Z,36.40
2022-12-20T04:03:59.846Z,35.63
2022-12-20T04:06:29.470Z,39.00
2022-12-20T04:08:57.999Z,37.03
2022-12-20T04:11:31.749Z,38.20
2022-12-20T04:14:20.578Z,37.92
2022-12-20T04:17:00.023Z,36.47
2022-12-20T04:19:29.712Z,35.17
2022-12-20T04:22:04.744Z,39.17
2022-12-20T04:24:47.908Z,34.50
2022-12-20T04:27:27.361Z,37.85
2022-12-20T04:29:57.734Z,36.53
2022-12-20T04:32:29.732Z,35.83
2022-12-20T04:34:58.885Z,42.03
2022-12-20T04:37:27.921Z,33.78
2022-12-20T04:40:00.012Z,37.03
2022-12-20T04:43:01.063Z,34.95
2022-12-20T04:45:30.263Z,36.22
2022-12-20T04:50:51.012Z,36.65
2022-12-20T04:53:38.395Z,36.85
2022-12-20T04:56:07.300Z,38.08
2022-12-20T04:58:38.315Z,34.83
2022-12-20T05:01:12.086Z,35.88
2022-12-20T05:03:54.923Z,34.08
2022-12-20T05:06:26.897Z,37.78
2022-12-20T05:09:15.642Z,35.42
2022-12-20T05:11:47.588Z,37.70
2022-12-20T05:14:16.186Z,35.22
2022-12-20T05:16:51.055Z,36.22
2022-12-20T05:19:22.312Z,34.38
2022-12-20T05:22:35.183Z,40.42
2022-12-20T05:25:33.030Z,34.05
2022-12-20T05:28:10.064Z,36.42
2022-12-20T05:30:38.486Z,34.00
2022-12-20T05:35:39.803Z,32.80
2022-12-20T05:38:12.934Z,35.05
2022-12-20T05:41:37.039Z,32.58
2022-12-20T05:44:08.121Z,30.98
2022-12-20T05:46:42.984Z,33.33
2022-12-20T05:49:20.612Z,35.42
2022-12-20T05:52:03.566Z,33.28
2022-12-20T05:54:33.619Z,32.92
2022-12-20T05:57:12.018Z,34.25
2022-12-20T05:59:43.184Z,28.60
2022-12-20T06:02:17.669Z,37.15
2022-12-20T06:04:51.065Z,33.08
2022-12-20T06:07:23.485Z,34.55
2022-12-20T06:09:57.233Z,36.10
2022-12-20T06:12:35.615Z,35.65
2022-12-20T06:15:05.711Z,32.63
2022-12-20T06:17:39.761Z,45.15
2022-12-20T06:20:17.169Z,35.45
2022-12-20T06:22:51.150Z,31.05
2022-12-20T06:25:20.715Z,34.45
2022-12-20T06:27:52.255Z,33.97
2022-12-20T06:30:21.488Z,36.42
2022-12-20T06:33:13.062Z,37.10
2022-12-20T06:35:47.942Z,36.00
2022-12-20T06:38:18.802Z,33.50
2022-12-20T06:40:47.640Z,29.57
2022-12-20T06:43:16.601Z,33.58
2022-12-20T06:45:46.047Z,33.40
2022-12-20T06:48:15.661Z,31.60
2022-12-20T06:50:53.718Z,34.08
2022-12-20T06:53:24.920Z,31.02
2022-12-20T06:55:56.477Z,33.30
2022-12-20T06:58:27.987Z,30.95
2022-12-20T07:00:56.696Z,34.40
2022-12-20T07:03:26.197Z,33.05
2022-12-20T07:05:55.730Z,32.78
2022-12-20T07:08:29.691Z,31.75
2022-12-20T07:11:04.806Z,32.33
2022-12-20T07:13:48.823Z,33.60
2022-12-20T07:16:17.547Z,33.03
2022-12-20T07:18:50.446Z,32.15
2022-12-20T07:21:19.944Z,26.67
2022-12-20T07:23:48.685Z,32.97
2022-12-20T07:26:17.387Z,33.83
2022-12-20T07:28:49.977Z,32.63
2022-12-20T07:32:08.809Z,31.45
2022-12-20T07:34:44.089Z,30.40
2022-12-20T07:37:42.160Z,30.75
2022-12-20T07:40:35.619Z,33.40
2022-12-20T07:43:06.671Z,36.08
2022-12-20T07:45:35.763Z,36.63
2022-12-20T07:48:12.385Z,33.42
2022-12-20T07:50:42.295Z,30.50
2022-12-20T07:55:56.918Z,31.10
2022-12-20T07:58:27.139Z,33.13
2022-12-20T08:00:56.567Z,30.73
2022-12-20T08:03:52.603Z,32.08
2022-12-20T08:06:22.696Z,31.20
2022-12-20T08:08:57.389Z,31.83
2022-12-20T08:11:33.019Z,27.65
2022-12-20T08:14:02.623Z,35.67
2022-12-20T08:16:40.005Z,35.30
2022-12-20T08:19:09.064Z,32.92
2022-12-20T08:22:08.788Z,30.27
2022-12-20T08:24:37.675Z,32.38
2022-12-20T08:27:06.158Z,31.73
2022-12-20T08:29:35.083Z,32.65
2022-12-20T08:32:06.429Z,34.60
2022-12-20T08:34:35.158Z,30.58
2022-12-20T08:37:12.420Z,26.85
2022-12-20T08:39:46.339Z,25.60
2022-12-20T08:42:17.470Z,31.80
2022-12-20T08:44:46.139Z,31.40
2022-12-20T08:47:14.481Z,30.38
2022-12-20T08:49:47.657Z,31.15
2022-12-20T08:55:29.063Z,34.63
2022-12-20T09:01:30.093Z,30.35
2022-12-20T09:04:00.721Z,32.75
2022-12-20T09:06:30.015Z,31.15
2022-12-20T09:09:00.631Z,31.95
2022-12-20T09:11:33.981Z,34.72
2022-12-20T09:14:05.175Z,32.97
2022-12-20T09:16:37.156Z,30.70
2022-12-20T09:19:07.671Z,33.90
2022-12-20T09:21:36.687Z,29.70
2022-12-20T09:24:11.899Z,31.83
2022-12-20T09:26:45.698Z,27.70
2022-12-20T09:29:25.060Z,32.08
2022-12-20T09:31:56.856Z,31.30
2022-12-20T09:35:22.851Z,26.33
2022-12-20T09:38:42.371Z,34.35
2022-12-20T09:49:59.216Z,33.03
2022-12-20T10:18:01.832Z,31.88
2022-12-20T10:42:39.038Z,48.83
2022-12-20T10:59:22.324Z,33.97
2022-12-20T11:02:47.580Z,33.53
2022-12-20T11:05:26.749Z,34.28
2022-12-20T11:11:33.405Z,34.20
2022-12-20T11:14:17.800Z,32.70
2022-12-20T11:17:48.714Z,34.83
2022-12-20T11:20:50.240Z,34.38
2022-12-20T11:30:47.989Z,37.00
2022-12-20T11:34:31.838Z,37.70
2022-12-20T11:41:49.388Z,36.22
2022-12-20T11:45:56.590Z,34.50
2022-12-20T11:48:41.347Z,34.25
2022-12-20T11:53:15.148Z,31.95
2022-12-20T11:55:27.503Z,34.95
2022-12-20T11:58:20.227Z,34.47
2022-12-20T12:01:30.273Z,35.45
2022-12-20T12:04:44.883Z,33.85
2022-12-20T12:07:37.364Z,35.90
2022-12-20T12:10:18.254Z,33.33
2022-12-20T12:13:01.161Z,35.70
2022-12-20T12:16:01.855Z,40.30
2022-12-20T12:18:37.270Z,34.10
2022-12-20T12:21:09.977Z,41.83
2022-12-20T12:24:32.739Z,35.95
2022-12-20T12:27:01.762Z,35.97
2022-12-20T12:29:31.134Z,40.58
2022-12-20T12:32:11.862Z,36.42
2022-12-20T12:34:59.524Z,39.00
2022-12-20T12:37:50.219Z,35.33
2022-12-20T12:40:50.500Z,37.55
2022-12-20T12:43:53.290Z,37.08
2022-12-20T12:46:29.288Z,36.65
2022-12-20T12:49:17.776Z,35.88
2022-12-20T12:52:07.222Z,41.00
2022-12-20T12:54:42.906Z,41.40
2022-12-20T12:57:18.618Z,35.45
2022-12-20T12:59:53.976Z,36.38
2022-12-20T13:02:27.919Z,37.38
2022-12-20T13:05:34.942Z,71.50
2022-12-20T13:08:18.203Z,44.75
2022-12-20T13:10:47.876Z,39.50
2022-12-20T13:13:26.379Z,45.67
2022-12-20T13:16:10.255Z,41.47
2022-12-20T13:19:13.519Z,41.60
2022-12-20T13:24:50.845Z,48.08
2022-12-20T13:27:40.894Z,43.80
2022-12-20T13:30:25.549Z,42.80
2022-12-20T13:33:03.427Z,43.65
2022-12-20T13:35:42.512Z,44.95
2022-12-20T13:38:54.698Z,45.13
2022-12-20T13:41:24.387Z,43.92
2022-12-20T13:44:01.637Z,41.60
2022-12-20T13:46:47.210Z,44.05
2022-12-20T13:49:32.393Z,44.63
2022-12-20T13:52:34.278Z,44.13
2022-12-20T13:55:16.614Z,48.75
2022-12-20T13:58:11.795Z,44.63
2022-12-20T14:00:47.687Z,45.05
2022-12-20T14:03:32.751Z,46.05
2022-12-20T14:06:11.738Z,46.30
2022-12-20T14:08:46.855Z,51.10
2022-12-20T14:11:18.572Z,43.25
2022-12-20T14:17:33.691Z,42.90
2022-12-20T14:20:12.760Z,45.70
2022-12-20T14:23:14.739Z,49.08
2022-12-20T14:26:23.284Z,48.35
2022-12-20T14:28:54.980Z,52.63
2022-12-20T14:32:16.315Z,53.13
2022-12-20T14:34:48.201Z,54.33
2022-12-20T14:37:36.422Z,45.28
2022-12-20T14:40:25.622Z,47.47
2022-12-20T14:42:54.856Z,58.00
2022-12-20T14:45:30.122Z,49.23
2022-12-20T14:48:15.480Z,86.07
2022-12-20T14:50:53.719Z,86.57
2022-12-20T14:53:32.079Z,64.28
2022-12-20T14:56:00.534Z,56.63
2022-12-20T14:58:35.542Z,51.88
2022-12-20T15:01:15.924Z,48.10
2022-12-20T15:04:01.159Z,54.53
2022-12-20T15:06:34.698Z,51.15
2022-12-20T15:09:05.601Z,52.38
2022-12-20T15:11:43.318Z,46.60
2022-12-20T15:14:30.341Z,53.75
2022-12-20T15:16:58.942Z,50.15
2022-12-20T15:19:42.451Z,51.33
2022-12-20T15:22:16.598Z,48.13
2022-12-20T15:24:54.398Z,51.58
2022-12-20T15:27:33.817Z,52.87
2022-12-20T15:30:33.614Z,57.75
2022-12-20T15:33:17.661Z,57.83
2022-12-20T15:44:14.220Z,50.03
2022-12-20T15:46:59.555Z,57.30
2022-12-20T15:52:12.227Z,56.47
2022-12-20T15:53:40.249Z,52.78
2022-12-20T15:56:40.384Z,54.67
2022-12-20T16:00:01.727Z,53.20
2022-12-20T16:03:36.174Z,53.97
2022-12-20T16:06:20.937Z,55.15
2022-12-20T17:16:02.651Z,53.65
2022-12-20T17:18:49.325Z,57.97
2022-12-20T17:24:46.026Z,66.55
2022-12-20T17:27:31.083Z,57.50
2022-12-20T17:30:36.433Z,65.25
2022-12-20T17:33:06.783Z,69.03
2022-12-20T17:35:36.014Z,60.25
2022-12-20T17:38:07.098Z,59.53
2022-12-20T17:40:37.961Z,64.18
2022-12-20T17:43:08.176Z,60.10
2022-12-20T17:45:41.022Z,66.15
2022-12-20T17:48:43.458Z,64.93
2022-12-20T17:52:02.022Z,64.50
2022-12-20T17:54:40.533Z,59.05
2022-12-20T18:00:53.277Z,64.93
2022-12-20T18:06:18.131Z,67.00
2022-12-20T18:09:01.628Z,68.32
2022-12-20T18:11:33.054Z,70.55
2022-12-20T18:14:03.665Z,67.25
2022-12-20T18:16:43.057Z,64.03
2022-12-20T18:19:18.016Z,59.35
2022-12-20T18:22:02.819Z,64.43
2022-12-20T19:13:20.490Z,67.55
2022-12-20T19:20:58.193Z,55.92
2022-12-20T19:29:17.294Z,59.38
2022-12-20T19:31:47.312Z,63.05
2022-12-20T19:37:37.720Z,57.58
2022-12-20T19:40:56.970Z,59.15
2022-12-20T19:43:31.359Z,59.95
2022-12-20T19:46:51.523Z,60.75
2022-12-20T19:52:56.395Z,62.58
2022-12-20T20:00:35.825Z,63.63
2022-12-20T20:03:39.671Z,62.28
2022-12-20T20:12:20.979Z,61.25
2022-12-20T20:16:25.447Z,61.60
2022-12-20T20:18:35.836Z,64.15
2022-12-20T20:21:24.462Z,55.30
2022-12-20T20:24:29.194Z,59.90
2022-12-20T20:27:20.099Z,57.65
2022-12-20T20:30:21.462Z,52.75
2022-12-20T20:40:05.494Z,58.80
2022-12-20T20:42:34.183Z,61.38
2022-12-20T20:45:07.340Z,55.63
2022-12-20T20:47:37.082Z,56.88
2022-12-20T20:50:12.050Z,51.97
2022-12-20T20:52:40.728Z,55.78
2022-12-20T20:55:09.754Z,52.45
2022-12-20T20:57:38.276Z,58.65
2022-12-20T21:02:56.949Z,55.70
2022-12-20T21:08:15.883Z,56.38
2022-12-20T21:10:44.861Z,58.67
2022-12-20T21:13:20.411Z,60.00
2022-12-20T21:16:40.740Z,65.15
2022-12-20T21:19:22.837Z,54.15
2022-12-20T21:22:03.799Z,54.97
2022-12-20T21:25:55.724Z,56.70
2022-12-20T21:28:31.871Z,55.78
2022-12-20T21:31:31.336Z,56.17
2022-12-20T21:34:00.062Z,56.25
2022-12-20T21:36:28.555Z,57.38
2022-12-20T21:38:58.597Z,54.30
2022-12-20T21:41:31.586Z,52.97
2022-12-20T21:44:00.825Z,54.33
2022-12-20T21:46:31.755Z,54.75
2022-12-20T21:49:00.794Z,53.70
2022-12-20T21:51:30.360Z,56.65
2022-12-20T21:54:03.943Z,52.70
2022-12-20T21:56:36.951Z,53.47
2022-12-20T21:59:05.901Z,57.80
2022-12-20T22:01:34.270Z,53.45
2022-12-20T22:04:20.574Z,64.63
2022-12-20T22:06:53.994Z,60.42
2022-12-20T22:09:22.769Z,58.35
2022-12-20T22:11:51.081Z,59.40
2022-12-20T22:14:20.131Z,65.22
2022-12-20T22:16:48.754Z,60.47
2022-12-20T22:19:18.068Z,61.08
2022-12-20T22:21:47.421Z,55.90
2022-12-20T22:24:19.596Z,54.42
2022-12-20T22:26:50.635Z,52.38
2022-12-20T22:29:20.308Z,62.47
2022-12-20T22:31:48.789Z,72.47
2022-12-20T22:34:17.406Z,69.22
2022-12-20T22:36:46.720Z,63.08
2022-12-20T22:39:15.463Z,62.40
2022-12-20T22:41:44.947Z,55.75
2022-12-20T22:44:18.971Z,52.47
2022-12-20T22:46:47.192Z,53.97
2022-12-20T22:49:19.452Z,57.95
2022-12-20T22:51:59.349Z,59.10
2022-12-20T22:54:35.604Z,53.20
2022-12-20T22:57:04.103Z,49.15
2022-12-20T22:59:37.830Z,53.28
2022-12-20T23:02:12.299Z,51.70
2022-12-20T23:05:17.501Z,54.72
2022-12-20T23:07:45.862Z,53.10
2022-12-20T23:10:36.141Z,57.75
2022-12-20T23:13:23.032Z,53.30
2022-12-20T23:15:51.667Z,50.05
2022-12-20T23:18:20.010Z,47.80
2022-12-20T23:21:11.284Z,47.95
2022-12-20T23:23:39.594Z,53.28
2022-12-20T23:26:10.325Z,47.65
2022-12-20T23:28:38.695Z,47.60
2022-12-20T23:31:08.741Z,56.80
2022-12-20T23:33:37.648Z,50.65
2022-12-20T23:36:07.232Z,49.80
2022-12-20T23:38:37.127Z,48.97
2022-12-20T23:41:11.123Z,56.28
2022-12-20T23:43:39.694Z,53.92
2022-12-20T23:46:12.124Z,47.80
2022-12-20T23:51:09.947Z,51.10
2022-12-20T23:53:38.606Z,51.63
2022-12-20T23:56:16.879Z,50.90
2022-12-20T23:58:49.855Z,47.75
